Time;durP1;ratioP1;P1;durP2;ratioP2;P2;SDS_P1;SDS_P2;PMS_P1;PMS_P2;Temp;Humidity;BMP_temperature;BMP_pressure;BME280_temperature;BME280_humidity;BME280_pressure;Samples;Min_cycle;Max_cycle;Signal;HPM_P1;HPM_P2
2022/06/16 00:01:50;;;;;;;;;;;;;;;17.54;67.95;100610.91;5055092;28;1356;-96
2022/06/16 00:04:17;;;;;;;;;;;;;;;17.53;67.94;100603.81;5066447;28;1292;-96
2022/06/16 00:06:44;;;;;;;;;;;;;;;17.53;67.87;100609.25;5079442;28;1910;-96
2022/06/16 00:09:10;;;;;;;;;;;;;;;17.52;67.81;100608.44;5091290;28;1304;-96
2022/06/16 00:11:37;;;;;;;;;;;;;;;17.51;67.86;100612.25;5079037;28;1207;-96
2022/06/16 00:14:04;;;;;;;;;;;;;;;17.49;67.60;100612.50;5062562;28;1355;-97
2022/06/16 00:16:30;;;;;;;;;;;;;;;17.49;67.82;100612.50;5053907;28;1405;-96
2022/06/16 00:18:57;;;;;;;;;;;;;;;17.47;67.60;100617.41;5052998;28;2230;-96
2022/06/16 00:21:23;;;;;;;;;;;;;;;17.48;67.82;100612.78;5062118;28;1195;-96
2022/06/16 00:23:50;;;;;;;;;;;;;;;17.46;67.85;100610.31;5062546;28;1754;-96
2022/06/16 00:26:17;;;;;;;;;;;;;;;17.46;67.77;100610.31;5074926;28;1985;-96
2022/06/16 00:28:43;;;;;;;;;;;;;;;17.46;67.74;100614.94;5078342;28;1454;-96
2022/06/16 00:31:10;;;;;;;;;;;;;;;17.44;67.70;100617.94;5048618;28;1252;-96
2022/06/16 00:33:37;;;;;;;;;;;;;;;17.44;67.56;100611.66;5044057;28;1207;-96
2022/06/16 00:36:04;;;;;;;;;;;;;;;17.43;67.60;100613.56;5072029;28;1383;-96
2022/06/16 00:38:31;;;;;;;;;;;;;;;17.43;67.64;100618.19;5063263;28;2674;-96
2022/06/16 00:40:58;;;;;;;;;;;;;;;17.42;67.61;100622.00;5063171;28;1228;-96
2022/06/16 00:43:25;;;;;;;;;;;;;;;17.42;67.62;100627.44;5054750;28;1186;-96
2022/06/16 00:45:53;;;;;;;;;;;;;;;17.39;67.58;100625.25;5059217;28;1981;-96
2022/06/16 00:48:20;;;;;;;;;;;;;;;17.40;67.76;100627.69;5059165;28;1400;-96
2022/06/16 00:50:47;;;;;;;;;;;;;;;17.39;67.41;100630.69;5077014;28;1440;-96
2022/06/16 00:53:13;;;;;;;;;;;;;;;17.38;67.69;100634.47;5062057;28;1224;-96
2022/06/16 00:55:40;;;;;;;;;;;;;;;17.37;67.57;100627.41;5061258;28;1359;-96
2022/06/16 00:58:11;;;;;;;;;;;;;;;17.37;67.59;100630.13;5078193;28;1705;-96
2022/06/16 01:00:37;;;;;;;;;;;;;;;17.35;67.62;100633.09;5073660;28;1920;-96
2022/06/16 01:03:04;;;;;;;;;;;;;;;17.35;67.49;100630.38;5052002;28;1309;-96
2022/06/16 01:05:29;;;;;;;;;;;;;;;17.35;67.39;100635.00;5061039;28;1918;-96
2022/06/16 01:07:56;;;;;;;;;;;;;;;17.35;67.39;100644.00;5060837;28;1359;-96
2022/06/16 01:10:23;;;;;;;;;;;;;;;17.33;67.40;100646.19;5060970;28;1409;-96
2022/06/16 01:15:34;;;;;;;;;;;;;;;17.32;67.38;100647.25;5060079;28;1373;-96
2022/06/16 01:18:01;;;;;;;;;;;;;;;17.31;67.38;100642.06;5060124;28;1873;-96
2022/06/16 01:20:28;;;;;;;;;;;;;;;17.30;67.42;100640.44;5077268;28;1431;-96
2022/06/16 01:22:54;;;;;;;;;;;;;;;17.28;67.33;100643.41;5060212;28;1192;-96
2022/06/16 01:25:21;;;;;;;;;;;;;;;17.29;67.29;100644.22;5060820;28;1910;-96
2022/06/16 01:27:47;;;;;;;;;;;;;;;17.27;67.28;100640.97;5077367;28;1290;-96
2022/06/16 01:30:14;;;;;;;;;;;;;;;17.26;67.33;100642.84;5060235;28;1352;-96
2022/06/16 01:32:41;;;;;;;;;;;;;;;17.25;67.17;100633.88;5064817;28;2268;-96
2022/06/16 01:35:08;;;;;;;;;;;;;;;17.25;67.24;100630.34;5077716;28;1243;-96
2022/06/16 01:37:34;;;;;;;;;;;;;;;17.24;67.18;100634.16;5054758;28;1360;-96
2022/06/16 01:40:01;;;;;;;;;;;;;;;17.22;67.12;100631.66;5077211;28;1211;-96
2022/06/16 01:42:27;;;;;;;;;;;;;;;17.22;67.12;100630.84;5069342;28;1242;-96
2022/06/16 01:44:55;;;;;;;;;;;;;;;17.22;67.25;100628.94;5076692;28;1164;-96
2022/06/16 01:47:22;;;;;;;;;;;;;;;17.21;67.15;100629.22;5059752;28;1969;-96
2022/06/16 01:49:48;;;;;;;;;;;;;;;17.20;67.21;100635.72;5053929;28;2160;-96
2022/06/16 01:52:17;;;;;;;;;;;;;;;17.19;67.27;100636.81;5056791;28;2537;-96
2022/06/16 01:54:43;;;;;;;;;;;;;;;17.19;67.01;100629.47;5068853;28;1377;-96
2022/06/16 01:57:10;;;;;;;;;;;;;;;17.18;67.27;100629.75;5060590;28;1300;-96
2022/06/16 01:59:37;;;;;;;;;;;;;;;17.16;67.31;100630.00;5056839;28;1281;-96
2022/06/16 02:02:03;;;;;;;;;;;;;;;17.17;67.23;100630.81;5056226;28;1172;-96
2022/06/16 02:04:30;;;;;;;;;;;;;;;17.15;67.05;100631.09;5073849;28;1234;-96
2022/06/16 02:06:56;;;;;;;;;;;;;;;17.15;66.96;100633.81;5056324;28;2005;-96
2022/06/16 02:09:25;;;;;;;;;;;;;;;17.15;67.10;100633.00;5076189;28;1299;-96
2022/06/16 02:11:52;;;;;;;;;;;;;;;17.14;67.20;100634.06;5067474;28;1295;-96
2022/06/16 02:14:18;;;;;;;;;;;;;;;17.13;67.19;100640.59;5073277;28;1298;-96
2022/06/16 02:16:45;;;;;;;;;;;;;;;17.11;67.10;100638.13;5056828;28;1386;-96
2022/06/16 02:19:12;;;;;;;;;;;;;;;17.12;66.96;100642.50;5057350;28;1282;-96
2022/06/16 02:21:38;;;;;;;;;;;;;;;17.11;66.98;100640.84;5056640;28;1360;-96
2022/06/16 02:24:05;;;;;;;;;;;;;;;17.10;66.92;100646.56;5058020;28;1318;-96
2022/06/16 02:26:31;;;;;;;;;;;;;;;17.09;67.15;100648.47;5076419;28;1958;-96
2022/06/16 02:28:58;;;;;;;;;;;;;;;17.09;66.92;100647.63;5076592;28;1296;-96
2022/06/16 02:31:25;;;;;;;;;;;;;;;17.08;66.93;100648.72;5076536;28;1381;-96
2022/06/16 02:33:52;;;;;;;;;;;;;;;17.08;66.89;100656.88;5068215;28;1277;-96
2022/06/16 02:36:18;;;;;;;;;;;;;;;17.07;67.01;100652.53;5057211;28;1207;-96
2022/06/16 02:38:45;;;;;;;;;;;;;;;17.07;66.88;100652.53;5056600;28;1622;-96
2022/06/16 02:41:12;;;;;;;;;;;;;;;17.03;66.93;100654.94;5040622;28;1277;-96
2022/06/16 02:43:38;;;;;;;;;;;;;;;17.03;66.90;100661.19;5036217;28;1313;-96
2022/06/16 02:46:05;;;;;;;;;;;;;;;17.03;66.92;100652.22;5056188;28;1906;-96
2022/06/16 02:48:31;;;;;;;;;;;;;;;17.03;66.95;100655.75;5072638;28;1229;-96
2022/06/16 02:50:58;;;;;;;;;;;;;;;17.01;66.77;100657.91;5072222;28;2580;-96
2022/06/16 02:53:25;;;;;;;;;;;;;;;17.01;66.92;100655.19;5055693;28;1171;-96
2022/06/16 02:55:51;;;;;;;;;;;;;;;17.00;66.86;100650.00;5075205;28;1304;-96
2022/06/16 02:58:18;;;;;;;;;;;;;;;16.99;66.95;100648.38;5089367;28;1328;-96
2022/06/16 03:00:45;;;;;;;;;;;;;;;16.99;66.90;100654.63;5059011;28;2314;-96
2022/06/16 03:03:11;;;;;;;;;;;;;;;16.97;66.83;100655.97;5068753;28;1270;-96
2022/06/16 03:05:38;;;;;;;;;;;;;;;16.97;66.66;100659.53;5055369;28;2200;-96
2022/06/16 03:08:04;;;;;;;;;;;;;;;16.96;66.73;100660.59;5042324;28;3374;-96
2022/06/16 03:13:15;;;;;;;;;;;;;;;16.94;66.73;100657.31;5063595;28;1148;-96
2022/06/16 03:15:41;;;;;;;;;;;;;;;16.95;66.76;100660.88;5074944;28;1318;-96
2022/06/16 03:18:08;;;;;;;;;;;;;;;16.94;66.66;100659.19;5058856;28;1173;-96
2022/06/16 03:20:34;;;;;;;;;;;;;;;16.94;66.84;100659.19;5058150;28;2457;-96
2022/06/16 03:23:01;;;;;;;;;;;;;;;16.93;66.71;100657.56;5045178;28;2697;-96
2022/06/16 03:25:27;;;;;;;;;;;;;;;16.91;66.70;100649.69;5062003;28;1204;-96
2022/06/16 03:27:55;;;;;;;;;;;;;;;16.90;67.11;100648.03;5058070;28;1954;-96
2022/06/16 03:30:21;;;;;;;;;;;;;;;16.91;66.63;100648.84;5074864;28;2436;-96
2022/06/16 03:32:48;;;;;;;;;;;;;;;16.90;66.63;100644.50;5057686;28;1472;-96
2022/06/16 03:35:14;;;;;;;;;;;;;;;16.90;66.55;100644.50;5057786;28;1304;-96
2022/06/16 03:37:41;;;;;;;;;;;;;;;16.89;66.67;100642.84;5058148;28;1354;-96
2022/06/16 03:40:08;;;;;;;;;;;;;;;16.89;66.66;100651.03;5061657;28;1547;-96
2022/06/16 03:42:35;;;;;;;;;;;;;;;16.87;66.51;100648.53;5061254;28;1194;-96
2022/06/16 03:45:01;;;;;;;;;;;;;;;16.87;66.71;100645.81;5061718;28;1157;-96
2022/06/16 03:47:28;;;;;;;;;;;;;;;16.86;66.68;100652.34;5061669;28;1909;-96
2022/06/16 03:49:54;;;;;;;;;;;;;;;16.86;66.47;100651.53;5061301;28;1282;-96
2022/06/16 03:52:21;;;;;;;;;;;;;;;16.84;66.57;100650.97;5061360;28;1360;-96
2022/06/16 03:54:47;;;;;;;;;;;;;;;16.84;66.66;100657.22;5070153;28;1261;-96
2022/06/16 03:57:14;;;;;;;;;;;;;;;16.83;66.48;100655.59;5061069;28;1293;-96
2022/06/16 03:59:40;;;;;;;;;;;;;;;16.82;66.61;100653.94;5061542;28;1595;-96
2022/06/16 04:02:07;;;;;;;;;;;;;;;16.82;66.41;100655.84;5062383;28;1583;-96
2022/06/16 04:04:32;;;;;;;;;;;;;;;16.81;66.51;100652.31;5075116;28;1295;-96
2022/06/16 04:06:59;;;;;;;;;;;;;;;16.80;66.48;100654.22;5077548;28;1910;-96
2022/06/16 04:09:25;;;;;;;;;;;;;;;16.80;66.42;100654.22;5061097;28;1538;-96
2022/06/16 04:11:52;;;;;;;;;;;;;;;16.80;66.45;100653.38;5059117;28;2246;-96
2022/06/16 04:14:19;;;;;;;;;;;;;;;16.80;66.51;100653.38;5061556;28;1410;-96
2022/06/16 04:16:46;;;;;;;;;;;;;;;16.79;66.40;100654.44;5060980;28;1385;-96
2022/06/16 04:19:13;;;;;;;;;;;;;;;16.79;66.36;100654.44;5078021;28;1243;-96
2022/06/16 04:21:39;;;;;;;;;;;;;;;16.78;66.38;100653.63;5077848;28;1611;-96
2022/06/16 04:24:06;;;;;;;;;;;;;;;16.77;66.40;100649.28;5071446;28;1207;-96
2022/06/16 04:26:33;;;;;;;;;;;;;;;16.76;66.29;100654.97;5075943;28;1933;-96
2022/06/16 04:29:00;;;;;;;;;;;;;;;16.77;66.35;100656.63;5077387;28;2687;-96
2022/06/16 04:31:26;;;;;;;;;;;;;;;16.76;66.23;100650.34;5060761;28;1207;-96
2022/06/16 04:33:53;;;;;;;;;;;;;;;16.75;66.43;100656.84;5060661;28;1212;-96
2022/06/16 04:36:20;;;;;;;;;;;;;;;16.74;66.33;100660.66;5060434;28;1226;-96
2022/06/16 04:38:48;;;;;;;;;;;;;;;16.74;66.32;100668.00;5077279;28;1529;-96
2022/06/16 04:41:15;;;;;;;;;;;;;;;16.74;66.25;100665.28;5046379;28;1372;-96
2022/06/16 04:43:41;;;;;;;;;;;;;;;16.73;66.31;100669.88;5045921;28;1285;-96
2022/06/16 04:46:08;;;;;;;;;;;;;;;16.72;66.24;100668.22;5056854;28;2529;-96
2022/06/16 04:48:34;;;;;;;;;;;;;;;16.71;66.32;100663.88;5040063;28;1250;-96
2022/06/16 04:51:03;;;;;;;;;;;;;;;16.71;66.40;100663.88;5051448;28;1558;-96
2022/06/16 04:53:29;;;;;;;;;;;;;;;16.71;66.17;100668.50;5060011;28;1195;-96
2022/06/16 04:55:56;;;;;;;;;;;;;;;16.72;66.22;100664.69;5060183;28;1291;-96
2022/06/16 04:58:22;;;;;;;;;;;;;;;16.71;66.24;100673.94;5068660;28;1188;-96
2022/06/16 05:00:49;;;;;;;;;;;;;;;16.70;66.32;100669.56;5073989;28;1239;-96
2022/06/16 05:03:15;;;;;;;;;;;;;;;16.69;66.24;100670.66;5077245;28;1243;-96
2022/06/16 05:05:42;;;;;;;;;;;;;;;16.69;66.24;100681.53;5060221;28;1290;-96
2022/06/16 05:08:08;;;;;;;;;;;;;;;16.69;66.33;100681.53;5060006;28;1917;-96
2022/06/16 05:10:35;;;;;;;;;;;;;;;16.69;66.13;100681.53;5076784;28;1084;-96
2022/06/16 05:13:02;;;;;;;;;;;;;;;16.68;66.25;100678.00;5048684;28;1266;-96
2022/06/16 05:15:28;;;;;;;;;;;;;;;16.68;66.25;100677.19;5059944;28;1291;-96
2022/06/16 05:17:55;;;;;;;;;;;;;;;16.68;66.23;100682.63;5079246;28;1247;-96
2022/06/16 05:20:22;;;;;;;;;;;;;;;16.68;66.13;100685.34;5080546;28;1286;-96
2022/06/16 05:22:49;;;;;;;;;;;;;;;16.68;66.09;100690.78;5080182;28;1391;-96
2022/06/16 05:25:16;;;;;;;;;;;;;;;16.67;66.36;100689.13;5068701;28;1191;-96
2022/06/16 05:27:42;;;;;;;;;;;;;;;16.66;66.11;100691.03;5076547;28;2702;-96
2022/06/16 05:30:09;;;;;;;;;;;;;;;16.67;65.97;100694.56;5060018;28;1188;-96
2022/06/16 05:32:35;;;;;;;;;;;;;;;16.66;66.00;100693.75;5059632;28;1201;-96
2022/06/16 05:35:02;;;;;;;;;;;;;;;16.65;66.04;100702.97;5063445;28;1265;-96
2022/06/16 05:37:28;;;;;;;;;;;;;;;16.66;66.29;100707.34;5067091;28;1334;-96
2022/06/16 05:39:55;;;;;;;;;;;;;;;16.66;66.24;100709.25;5056385;28;1305;-96
2022/06/16 05:42:21;;;;;;;;;;;;;;;16.65;66.08;100702.13;5070808;28;1195;-96
2022/06/16 05:44:48;;;;;;;;;;;;;;;16.65;66.14;100713.84;5076671;28;1203;-96
2022/06/16 05:47:14;;;;;;;;;;;;;;;16.65;66.13;100699.41;5093557;28;1914;-96
2022/06/16 05:49:42;;;;;;;;;;;;;;;16.64;65.98;100703.22;5093560;28;1363;-96
2022/06/16 05:52:09;;;;;;;;;;;;;;;16.64;66.16;100701.31;5049443;28;1384;-96
2022/06/16 05:54:35;;;;;;;;;;;;;;;16.65;66.08;100707.56;5081046;28;1380;-96
2022/06/16 05:57:02;;;;;;;;;;;;;;;16.63;66.13;100704.31;5055173;28;2542;-96
2022/06/16 05:59:28;;;;;;;;;;;;;;;16.64;65.93;100700.50;5055935;28;1240;-96
2022/06/16 06:01:55;;;;;;;;;;;;;;;16.64;66.07;100700.50;5057211;28;1324;-96
2022/06/16 06:04:22;;;;;;;;;;;;;;;16.64;66.05;100709.47;5055507;28;1504;-96
2022/06/16 06:06:48;;;;;;;;;;;;;;;16.63;66.03;100704.31;5071433;28;2702;-96
2022/06/16 06:17:28;;;;;;;;;;;;;;;16.63;65.98;100707.03;5046635;28;2355;-96
2022/06/16 06:19:55;;;;;;;;;;;;;;;16.63;65.90;100707.03;5059722;28;1635;-96
2022/06/16 06:22:24;;;;;;;;;;;;;;;16.61;65.92;100710.00;5061190;28;1199;-96
2022/06/16 06:24:52;;;;;;;;;;;;;;;16.62;65.94;100713.53;5055135;28;2602;-96
2022/06/16 06:27:19;;;;;;;;;;;;;;;16.63;65.73;100715.19;5060184;28;1914;-95
2022/06/16 06:29:45;;;;;;;;;;;;;;;16.62;65.78;100714.38;5071024;28;1305;-96
2022/06/16 06:32:12;;;;;;;;;;;;;;;16.62;65.86;100713.53;5053113;28;5165;-96
2022/06/16 06:34:38;;;;;;;;;;;;;;;16.61;65.98;100714.63;5054369;28;1412;-96
2022/06/16 06:37:05;;;;;;;;;;;;;;;16.61;65.86;100718.16;5054287;28;1291;-96
2022/06/16 06:39:32;;;;;;;;;;;;;;;16.62;65.89;100724.41;5070636;28;4646;-95
2022/06/16 06:41:58;;;;;;;;;;;;;;;16.62;65.80;100724.41;5070885;28;1223;-96
2022/06/16 06:44:25;;;;;;;;;;;;;;;16.62;65.81;100732.56;5070748;28;1196;-96
2022/06/16 06:46:51;;;;;;;;;;;;;;;16.60;65.78;100730.13;5070648;28;1979;-95
2022/06/16 06:49:18;;;;;;;;;;;;;;;16.61;65.87;100736.38;5070805;28;1306;-96
2022/06/16 06:51:44;;;;;;;;;;;;;;;16.61;65.65;100733.66;5070634;28;1224;-95
2022/06/16 06:54:11;;;;;;;;;;;;;;;16.62;65.87;100738.00;5068047;28;2750;-94
2022/06/16 06:56:37;;;;;;;;;;;;;;;16.61;65.78;100736.38;5052810;28;2267;-94
2022/06/16 06:59:04;;;;;;;;;;;;;;;16.62;65.75;100738.00;5052682;28;2583;-95
2022/06/16 07:01:30;;;;;;;;;;;;;;;16.62;65.85;100740.72;5053566;28;1192;-95
2022/06/16 07:03:57;;;;;;;;;;;;;;;16.62;65.72;100735.28;5070384;28;2705;-94
2022/06/16 07:06:23;;;;;;;;;;;;;;;16.61;65.80;100734.47;5053853;28;1175;-94
2022/06/16 07:08:50;;;;;;;;;;;;;;;16.60;65.63;100735.56;5068745;28;2752;-94
2022/06/16 07:11:16;;;;;;;;;;;;;;;16.61;65.74;100737.19;5033910;28;1216;-95
2022/06/16 07:13:43;;;;;;;;;;;;;;;16.60;65.69;100727.41;5057943;28;1196;-95
2022/06/16 07:16:10;;;;;;;;;;;;;;;16.62;65.96;100738.00;5054755;28;1886;-96
2022/06/16 07:18:37;;;;;;;;;;;;;;;16.62;65.73;100729.84;5073090;28;2219;-96
2022/06/16 07:21:04;;;;;;;;;;;;;;;16.62;65.83;100735.28;5074696;28;1264;-95
2022/06/16 07:23:30;;;;;;;;;;;;;;;16.61;65.80;100739.91;5074198;28;1182;-95
2022/06/16 07:25:57;;;;;;;;;;;;;;;16.62;65.86;100738.00;5057537;28;1196;-95
2022/06/16 07:28:23;;;;;;;;;;;;;;;16.62;65.72;100738.00;5074313;28;1909;-95
2022/06/16 07:30:50;;;;;;;;;;;;;;;16.62;65.86;100738.84;5057477;28;1117;-95
2022/06/16 07:33:16;;;;;;;;;;;;;;;16.62;65.71;100735.28;5057456;28;1307;-94
2022/06/16 07:35:44;;;;;;;;;;;;;;;16.62;65.80;100743.44;5075629;28;1288;-95
2022/06/16 07:38:10;;;;;;;;;;;;;;;16.62;65.78;100738.00;5077408;28;1353;-95
2022/06/16 07:40:37;;;;;;;;;;;;;;;16.63;65.85;100736.94;5069341;28;1310;-95
2022/06/16 07:43:03;;;;;;;;;;;;;;;16.62;65.68;100738.84;5074068;28;1357;-94
2022/06/16 07:45:30;;;;;;;;;;;;;;;16.63;65.72;100736.94;5056531;28;1302;-95
2022/06/16 07:47:57;;;;;;;;;;;;;;;16.64;65.80;100738.56;5073864;28;1976;-95
2022/06/16 07:50:23;;;;;;;;;;;;;;;16.63;65.79;100743.19;5073746;28;1160;-95
2022/06/16 07:52:50;;;;;;;;;;;;;;;16.65;65.83;100740.22;5056958;28;1186;-95
2022/06/16 07:55:18;;;;;;;;;;;;;;;16.65;65.61;100734.78;5057477;28;1397;-95
2022/06/16 07:57:44;;;;;;;;;;;;;;;16.64;65.74;100736.66;5056911;28;1330;-95
2022/06/16 08:00:12;;;;;;;;;;;;;;;16.65;65.81;100732.91;5071432;28;2196;-95
2022/06/16 08:02:38;;;;;;;;;;;;;;;16.66;65.76;100739.16;5047300;28;1187;-95
2022/06/16 08:05:05;;;;;;;;;;;;;;;16.66;65.60;100731.00;5060259;28;1311;-96
2022/06/16 08:07:31;;;;;;;;;;;;;;;16.66;65.80;100728.28;5057778;28;1894;-95
2022/06/16 08:09:58;;;;;;;;;;;;;;;16.67;65.82;100738.06;5046420;28;1301;-95
2022/06/16 08:12:26;;;;;;;;;;;;;;;16.66;65.83;100745.41;5036796;28;1180;-95
2022/06/16 08:14:52;;;;;;;;;;;;;;;16.66;65.73;100742.69;5040205;28;1191;-95
2022/06/16 08:17:19;;;;;;;;;;;;;;;16.66;65.90;100742.69;5073670;28;1335;-95
2022/06/16 08:19:45;;;;;;;;;;;;;;;16.67;65.72;100733.44;5073488;28;1293;-95
2022/06/16 08:22:12;;;;;;;;;;;;;;;16.67;65.80;100729.91;5073596;28;1280;-96
2022/06/16 08:24:38;;;;;;;;;;;;;;;16.68;65.83;100731.56;5072671;28;1285;-95
2022/06/16 08:27:05;;;;;;;;;;;;;;;16.69;65.80;100731.28;5056476;28;1977;-95
2022/06/16 08:29:32;;;;;;;;;;;;;;;16.69;65.83;100741.34;5056733;28;1316;-95
2022/06/16 08:31:58;;;;;;;;;;;;;;;16.69;65.85;100731.28;5047216;28;1184;-95
2022/06/16 08:34:25;;;;;;;;;;;;;;;16.70;65.84;100735.66;5053550;28;1207;-95
2022/06/16 08:36:51;;;;;;;;;;;;;;;16.69;65.82;100728.56;5066333;28;1258;-95
2022/06/16 08:39:18;;;;;;;;;;;;;;;16.70;65.74;100729.38;5073226;28;1235;-95
2022/06/16 08:41:44;;;;;;;;;;;;;;;16.71;65.67;100731.88;5072939;28;1450;-94
2022/06/16 08:44:11;;;;;;;;;;;;;;;16.71;65.62;100733.78;5056274;28;1315;-95
2022/06/16 08:46:38;;;;;;;;;;;;;;;16.71;65.66;100726.44;5056493;28;1240;-96
2022/06/16 08:49:04;;;;;;;;;;;;;;;16.72;65.88;100733.50;5056001;28;1918;-95
2022/06/16 08:51:32;;;;;;;;;;;;;;;16.73;65.70;100734.31;5056095;28;1198;-95
2022/06/16 08:53:58;;;;;;;;;;;;;;;16.72;65.87;100730.78;5052532;28;1400;-96
2022/06/16 08:56:25;;;;;;;;;;;;;;;16.73;65.67;100732.41;5075887;28;1167;-95
2022/06/16 08:58:52;;;;;;;;;;;;;;;16.74;65.71;100734.06;5075867;28;1183;-95
2022/06/16 09:01:18;;;;;;;;;;;;;;;16.74;65.93;100730.53;5067697;28;2281;-95
2022/06/16 09:03:45;;;;;;;;;;;;;;;16.76;65.91;100733.84;5038434;28;1215;-94
2022/06/16 09:06:11;;;;;;;;;;;;;;;16.75;65.71;100727.53;5072590;28;1332;-94
2022/06/16 09:08:38;;;;;;;;;;;;;;;16.76;65.76;100731.94;5046940;28;1914;-95
2022/06/16 09:11:04;;;;;;;;;;;;;;;16.76;65.85;100737.38;5072438;28;1261;-95
2022/06/16 09:13:31;;;;;;;;;;;;;;;16.76;65.78;100731.13;5055976;28;1223;-95
2022/06/16 09:15:58;;;;;;;;;;;;;;;16.77;65.76;100730.88;5056412;28;1378;-95
2022/06/16 09:18:24;;;;;;;;;;;;;;;16.77;65.83;100725.44;5056123;28;1211;-95
2022/06/16 09:20:51;;;;;;;;;;;;;;;16.79;65.87;100739.59;5055456;28;1208;-95
2022/06/16 09:23:17;;;;;;;;;;;;;;;16.79;66.00;100736.03;5055317;28;1306;-95
2022/06/16 09:25:44;;;;;;;;;;;;;;;16.80;66.03;100741.25;5072304;28;1246;-95
2022/06/16 09:28:10;;;;;;;;;;;;;;;16.80;65.78;100737.69;5072008;28;1914;-95
2022/06/16 09:30:37;;;;;;;;;;;;;;;16.80;65.80;100735.81;5072216;28;1207;-95
2022/06/16 09:33:03;;;;;;;;;;;;;;;16.82;65.81;100740.97;5071846;28;1316;-95
2022/06/16 09:35:31;;;;;;;;;;;;;;;16.83;66.05;100736.38;5054087;28;1184;-95
2022/06/16 09:37:58;;;;;;;;;;;;;;;16.83;65.82;100737.19;5055133;28;1297;-95
2022/06/16 09:40:24;;;;;;;;;;;;;;;16.83;65.84;100734.47;5055259;28;1219;-95
2022/06/16 09:42:51;;;;;;;;;;;;;;;16.84;66.03;100738.81;5055060;28;1298;-96
2022/06/16 09:45:18;;;;;;;;;;;;;;;16.84;66.05;100738.81;5055089;28;1215;-96
2022/06/16 09:47:44;;;;;;;;;;;;;;;16.85;65.92;100743.16;5070723;28;1910;-95
2022/06/16 09:50:11;;;;;;;;;;;;;;;16.85;66.07;100743.16;5071687;28;1242;-95
2022/06/16 09:52:37;;;;;;;;;;;;;;;16.86;66.07;100738.56;5071568;28;1187;-95
2022/06/16 09:55:04;;;;;;;;;;;;;;;16.87;66.04;100737.50;5071269;28;1598;-95
2022/06/16 09:57:30;;;;;;;;;;;;;;;16.88;66.13;100739.94;5054560;28;1195;-95
2022/06/16 09:59:57;;;;;;;;;;;;;;;16.89;65.98;100732.63;5072022;28;1327;-96
2022/06/16 10:02:24;;;;;;;;;;;;;;;16.89;66.17;100738.06;5071654;28;1326;-96
2022/06/16 10:04:50;;;;;;;;;;;;;;;16.89;66.18;100738.88;5056578;28;4958;-95
2022/06/16 10:07:17;;;;;;;;;;;;;;;16.90;65.95;100731.53;5072307;28;2184;-95
2022/06/16 10:09:44;;;;;;;;;;;;;;;16.91;66.24;100731.28;5071090;28;1977;-96
2022/06/16 10:12:10;;;;;;;;;;;;;;;16.92;66.13;100743.81;5054651;28;1176;-96
2022/06/16 10:14:37;;;;;;;;;;;;;;;16.92;66.13;100738.38;5054443;28;1392;-96
2022/06/16 10:17:03;;;;;;;;;;;;;;;16.93;66.15;100728.28;5071233;28;1334;-95
2022/06/16 10:19:29;;;;;;;;;;;;;;;16.93;66.22;100734.56;5070927;28;1136;-95
2022/06/16 10:21:56;;;;;;;;;;;;;;;16.94;66.16;100728.06;5054485;28;1880;-95
2022/06/16 10:24:22;;;;;;;;;;;;;;;16.95;66.34;100726.97;5046023;28;2247;-96
2022/06/16 10:26:49;;;;;;;;;;;;;;;16.95;66.20;100726.97;5071328;28;1156;-95
2022/06/16 10:29:15;;;;;;;;;;;;;;;16.96;66.10;100716.91;5054320;28;1980;-96
2022/06/16 10:31:43;;;;;;;;;;;;;;;16.95;66.18;100724.25;5060098;28;1250;-95
2022/06/16 10:34:09;;;;;;;;;;;;;;;16.97;66.18;100732.13;5054156;28;1326;-96
2022/06/16 10:36:36;;;;;;;;;;;;;;;16.98;66.19;100726.44;5068759;28;1168;-94
2022/06/16 10:39:02;;;;;;;;;;;;;;;16.99;66.37;100719.91;5035836;28;1235;-95
2022/06/16 10:41:29;;;;;;;;;;;;;;;17.00;66.17;100734.34;5070568;28;1360;-95
2022/06/16 10:43:56;;;;;;;;;;;;;;;17.01;66.45;100738.72;5053965;28;1380;-95
2022/06/16 10:46:22;;;;;;;;;;;;;;;17.02;66.37;100734.91;5070843;28;1229;-95
2022/06/16 10:48:49;;;;;;;;;;;;;;;17.04;66.33;100735.47;5070756;28;1953;-95
2022/06/16 10:51:15;;;;;;;;;;;;;;;17.05;66.23;100744.47;5054137;28;1182;-95
2022/06/16 10:53:42;;;;;;;;;;;;;;;17.07;66.33;100750.47;5070771;28;1174;-95
2022/06/16 10:56:10;;;;;;;;;;;;;;;17.05;66.26;100745.28;5053727;28;1184;-95
2022/06/16 10:58:37;;;;;;;;;;;;;;;17.06;66.48;100748.81;5062029;28;1179;-96
2022/06/16 11:01:03;;;;;;;;;;;;;;;17.08;66.28;100750.19;5074002;28;1286;-96
2022/06/16 11:03:30;;;;;;;;;;;;;;;17.09;66.30;100745.56;5073557;28;1451;-95
2022/06/16 11:05:57;;;;;;;;;;;;;;;17.09;66.53;100746.41;5050124;28;2207;-96
2022/06/16 11:08:23;;;;;;;;;;;;;;;17.12;66.46;100756.78;5034225;28;1894;-95
2022/06/16 11:10:50;;;;;;;;;;;;;;;17.12;66.42;100753.22;5034183;28;1287;-96
2022/06/16 11:13:16;;;;;;;;;;;;;;;17.13;66.39;100752.16;5034225;28;1199;-96
2022/06/16 11:15:43;;;;;;;;;;;;;;;17.14;66.42;100759.22;5047356;28;1309;-96
2022/06/16 11:18:09;;;;;;;;;;;;;;;17.15;66.67;100756.28;5053716;28;1194;-96
2022/06/16 11:20:36;;;;;;;;;;;;;;;17.15;66.53;100750.81;5070310;28;1213;-96
2022/06/16 11:23:02;;;;;;;;;;;;;;;17.16;66.64;100752.47;5050315;28;1282;-96
2022/06/16 11:25:30;;;;;;;;;;;;;;;17.17;66.57;100754.09;5033786;28;1319;-96
2022/06/16 11:27:57;;;;;;;;;;;;;;;17.18;66.45;100747.59;5066966;28;1969;-95
2022/06/16 11:30:23;;;;;;;;;;;;;;;17.18;66.58;100753.03;5090499;28;1148;-95
2022/06/16 11:32:50;;;;;;;;;;;;;;;17.21;66.66;100748.97;5075398;28;1207;-96
2022/06/16 11:35:16;;;;;;;;;;;;;;;17.22;66.45;100743.25;5053805;28;1332;-96
2022/06/16 11:37:43;;;;;;;;;;;;;;;17.23;66.32;100747.59;5043156;28;1275;-96
2022/06/16 11:40:10;;;;;;;;;;;;;;;17.24;66.49;100748.44;5043248;28;1294;-96
2022/06/16 11:42:38;;;;;;;;;;;;;;;17.27;66.39;100752.56;5070364;28;1382;-96
2022/06/16 11:45:04;;;;;;;;;;;;;;;17.28;66.68;100748.75;5070225;28;1172;-96
2022/06/16 11:47:31;;;;;;;;;;;;;;;17.30;66.59;100757.47;5070369;28;1215;-96
2022/06/16 11:49:57;;;;;;;;;;;;;;;17.30;66.76;100752.03;5070163;28;1913;-95
2022/06/16 11:52:24;;;;;;;;;;;;;;;17.31;66.60;100750.94;5070320;28;1187;-96
2022/06/16 11:54:51;;;;;;;;;;;;;;;17.32;66.50;100755.31;5070140;28;1290;-96
2022/06/16 11:57:17;;;;;;;;;;;;;;;17.34;66.56;100758.59;5053191;28;1188;-96
2022/06/16 11:59:44;;;;;;;;;;;;;;;17.35;66.79;100754.78;5072216;28;1273;-96
2022/06/16 12:02:10;;;;;;;;;;;;;;;17.36;66.57;100753.72;5073658;28;1172;-96
2022/06/16 12:04:37;;;;;;;;;;;;;;;17.36;66.69;100749.09;5069659;28;2014;-96
2022/06/16 12:07:04;;;;;;;;;;;;;;;17.37;66.57;100748.00;5055094;28;1306;-96
2022/06/16 12:09:30;;;;;;;;;;;;;;;17.37;66.67;100745.28;5059448;28;2277;-96
2022/06/16 12:11:57;;;;;;;;;;;;;;;17.40;66.92;100749.38;5056840;28;1252;-96
2022/06/16 12:14:24;;;;;;;;;;;;;;;17.41;66.69;100751.88;5056890;28;1172;-96
2022/06/16 12:16:52;;;;;;;;;;;;;;;17.42;67.07;100749.97;5061481;28;1260;-96
2022/06/16 12:19:19;;;;;;;;;;;;;;;17.43;66.85;100746.97;5036674;28;1403;-96
2022/06/16 12:21:46;;;;;;;;;;;;;;;17.44;66.96;100745.91;5037176;28;1223;-96
2022/06/16 12:24:12;;;;;;;;;;;;;;;17.45;66.94;100742.09;5054848;28;1196;-96
2022/06/16 12:26:39;;;;;;;;;;;;;;;17.47;66.92;100758.16;5056600;28;1201;-96
2022/06/16 12:29:06;;;;;;;;;;;;;;;17.47;66.98;100744.53;5072993;28;1935;-96
2022/06/16 12:31:32;;;;;;;;;;;;;;;17.49;67.10;100750.53;5056635;28;1201;-96
2022/06/16 12:33:59;;;;;;;;;;;;;;;17.51;66.89;100753.03;5039119;28;1318;-96
2022/06/16 12:36:25;;;;;;;;;;;;;;;17.52;67.09;100744.56;5073254;28;1374;-96
2022/06/16 12:38:52;;;;;;;;;;;;;;;17.53;67.08;100748.13;5072960;28;1311;-96
2022/06/16 12:41:19;;;;;;;;;;;;;;;17.55;67.03;100737.78;5073017;28;1385;-96
2022/06/16 12:43:46;;;;;;;;;;;;;;;17.56;67.09;100740.25;5056327;28;1291;-96
2022/06/16 12:46:13;;;;;;;;;;;;;;;17.57;67.00;100731.00;5056364;28;1156;-96
2022/06/16 12:48:40;;;;;;;;;;;;;;;17.58;67.19;100729.91;5056334;28;1918;-96
2022/06/16 12:51:06;;;;;;;;;;;;;;;17.60;67.01;100730.47;5073012;28;1207;-96
2022/06/16 12:53:35;;;;;;;;;;;;;;;17.62;67.32;100727.50;5065994;28;1462;-96
2022/06/16 12:56:03;;;;;;;;;;;;;;;17.63;67.31;100726.41;5036041;28;1253;-96
2022/06/16 12:58:29;;;;;;;;;;;;;;;17.65;67.27;100737.88;5036341;28;1358;-96